sensor_id;sensor_type;location;lat;lon;timestamp;P1;durP1;ratioP1;P2;durP2;ratioP2
79493;SDS011;68951;53.130;18.104;2023-07-24T00:02:14;8.00;;;4.20;;
79493;SDS011;68951;53.130;18.104;2023-07-24T00:04:41;8.30;;;4.20;;
79493;SDS011;68951;53.130;18.104;2023-07-24T00:07:07;6.60;;;3.60;;
79493;SDS011;68951;53.130;18.104;2023-07-24T00:09:33;8.20;;;4.00;;
79493;SDS011;68951;53.130;18.104;2023-07-24T00:11:59;8.80;;;4.40;;
79493;SDS011;68951;53.130;18.104;2023-07-24T00:14:25;6.90;;;3.90;;
79493;SDS011;68951;53.130;18.104;2023-07-24T00:16:51;8.40;;;4.10;;
79493;SDS011;68951;53.130;18.104;2023-07-24T00:19:18;6.80;;;3.60;;
79493;SDS011;68951;53.130;18.104;2023-07-24T00:21:44;7.70;;;4.00;;
79493;SDS011;68951;53.130;18.104;2023-07-24T00:24:10;7.40;;;3.40;;
79493;SDS011;68951;53.130;18.104;2023-07-24T00:26:36;7.60;;;3.80;;
79493;SDS011;68951;53.130;18.104;2023-07-24T00:29:02;8.00;;;4.00;;
79493;SDS011;68951;53.130;18.104;2023-07-24T00:31:28;9.70;;;3.70;;
79493;SDS011;68951;53.130;18.104;2023-07-24T00:33:54;7.30;;;3.90;;
79493;SDS011;68951;53.130;18.104;2023-07-24T00:36:21;8.70;;;4.10;;
79493;SDS011;68951;53.130;18.104;2023-07-24T00:38:47;8.10;;;4.40;;
79493;SDS011;68951;53.130;18.104;2023-07-24T00:41:13;8.70;;;4.10;;
79493;SDS011;68951;53.130;18.104;2023-07-24T00:43:39;8.60;;;4.50;;
79493;SDS011;68951;53.130;18.104;2023-07-24T00:46:06;8.80;;;4.50;;
79493;SDS011;68951;53.130;18.104;2023-07-24T00:48:33;8.90;;;3.80;;
79493;SDS011;68951;53.130;18.104;2023-07-24T00:50:59;8.80;;;3.90;;
79493;SDS011;68951;53.130;18.104;2023-07-24T00:53:26;7.30;;;3.50;;
79493;SDS011;68951;53.130;18.104;2023-07-24T00:55:52;8.20;;;4.00;;
79493;SDS011;68951;53.130;18.104;2023-07-24T00:58:19;7.90;;;4.10;;
79493;SDS011;68951;53.130;18.104;2023-07-24T01:00:45;7.40;;;3.90;;
79493;SDS011;68951;53.130;18.104;2023-07-24T01:03:12;7.40;;;4.00;;
79493;SDS011;68951;53.130;18.104;2023-07-24T01:05:38;7.30;;;4.00;;
79493;SDS011;68951;53.130;18.104;2023-07-24T01:08:06;7.70;;;4.00;;
79493;SDS011;68951;53.130;18.104;2023-07-24T01:10:32;8.10;;;4.20;;
79493;SDS011;68951;53.130;18.104;2023-07-24T01:13:19;9.50;;;3.90;;
79493;SDS011;68951;53.130;18.104;2023-07-24T01:15:55;10.10;;;4.60;;
79493;SDS011;68951;53.130;18.104;2023-07-24T01:18:27;7.80;;;4.40;;
79493;SDS011;68951;53.130;18.104;2023-07-24T01:20:57;7.60;;;3.80;;
79493;SDS011;68951;53.130;18.104;2023-07-24T01:23:59;7.90;;;3.90;;
79493;SDS011;68951;53.130;18.104;2023-07-24T01:26:35;7.70;;;3.60;;
79493;SDS011;68951;53.130;18.104;2023-07-24T01:29:01;8.40;;;4.10;;
79493;SDS011;68951;53.130;18.104;2023-07-24T01:31:27;7.50;;;3.70;;
79493;SDS011;68951;53.130;18.104;2023-07-24T01:33:53;7.80;;;3.70;;
79493;SDS011;68951;53.130;18.104;2023-07-24T01:36:20;8.90;;;3.90;;
79493;SDS011;68951;53.130;18.104;2023-07-24T01:38:47;7.40;;;3.90;;
79493;SDS011;68951;53.130;18.104;2023-07-24T01:41:15;10.10;;;3.80;;
79493;SDS011;68951;53.130;18.104;2023-07-24T01:43:41;8.10;;;3.70;;
79493;SDS011;68951;53.130;18.104;2023-07-24T01:46:08;9.80;;;3.60;;
79493;SDS011;68951;53.130;18.104;2023-07-24T01:48:34;12.20;;;4.30;;
79493;SDS011;68951;53.130;18.104;2023-07-24T01:51:01;10.10;;;4.30;;
79493;SDS011;68951;53.130;18.104;2023-07-24T01:53:27;10.50;;;4.10;;
79493;SDS011;68951;53.130;18.104;2023-07-24T01:55:53;9.00;;;4.60;;
79493;SDS011;68951;53.130;18.104;2023-07-24T01:58:19;9.30;;;4.10;;
79493;SDS011;68951;53.130;18.104;2023-07-24T02:00:45;8.00;;;3.80;;
79493;SDS011;68951;53.130;18.104;2023-07-24T02:03:11;8.40;;;3.60;;
79493;SDS011;68951;53.130;18.104;2023-07-24T02:05:37;7.80;;;3.90;;
79493;SDS011;68951;53.130;18.104;2023-07-24T02:08:04;7.50;;;3.60;;
79493;SDS011;68951;53.130;18.104;2023-07-24T02:10:30;7.50;;;3.90;;
79493;SDS011;68951;53.130;18.104;2023-07-24T02:12:56;8.10;;;3.50;;
79493;SDS011;68951;53.130;18.104;2023-07-24T02:15:22;7.20;;;3.80;;
79493;SDS011;68951;53.130;18.104;2023-07-24T02:17:48;8.90;;;4.10;;
79493;SDS011;68951;53.130;18.104;2023-07-24T02:20:14;7.30;;;3.60;;
79493;SDS011;68951;53.130;18.104;2023-07-24T02:22:40;8.70;;;4.00;;
79493;SDS011;68951;53.130;18.104;2023-07-24T02:25:07;8.40;;;3.80;;
79493;SDS011;68951;53.130;18.104;2023-07-24T02:27:33;9.40;;;4.00;;
79493;SDS011;68951;53.130;18.104;2023-07-24T02:30:01;8.20;;;4.20;;
79493;SDS011;68951;53.130;18.104;2023-07-24T02:32:28;10.30;;;3.70;;
79493;SDS011;68951;53.130;18.104;2023-07-24T02:34:54;9.90;;;3.50;;
79493;SDS011;68951;53.130;18.104;2023-07-24T02:37:20;8.00;;;3.90;;
79493;SDS011;68951;53.130;18.104;2023-07-24T02:39:46;10.60;;;4.10;;
79493;SDS011;68951;53.130;18.104;2023-07-24T02:42:12;8.40;;;4.00;;
79493;SDS011;68951;53.130;18.104;2023-07-24T02:44:39;8.80;;;3.90;;
79493;SDS011;68951;53.130;18.104;2023-07-24T02:47:05;10.80;;;4.20;;
79493;SDS011;68951;53.130;18.104;2023-07-24T02:49:32;8.30;;;4.20;;
79493;SDS011;68951;53.130;18.104;2023-07-24T02:51:59;7.70;;;4.20;;
79493;SDS011;68951;53.130;18.104;2023-07-24T02:54:25;9.70;;;4.60;;
79493;SDS011;68951;53.130;18.104;2023-07-24T02:56:52;8.30;;;4.70;;
79493;SDS011;68951;53.130;18.104;2023-07-24T02:59:18;7.50;;;3.90;;
79493;SDS011;68951;53.130;18.104;2023-07-24T03:01:44;8.70;;;4.00;;
79493;SDS011;68951;53.130;18.104;2023-07-24T03:04:10;8.60;;;4.20;;
79493;SDS011;68951;53.130;18.104;2023-07-24T03:06:39;8.40;;;4.10;;
79493;SDS011;68951;53.130;18.104;2023-07-24T03:09:05;11.50;;;4.10;;
79493;SDS011;68951;53.130;18.104;2023-07-24T03:11:32;8.10;;;4.40;;
79493;SDS011;68951;53.130;18.104;2023-07-24T03:13:58;6.90;;;3.90;;
79493;SDS011;68951;53.130;18.104;2023-07-24T03:16:24;7.70;;;3.70;;
79493;SDS011;68951;53.130;18.104;2023-07-24T03:18:50;8.10;;;4.60;;
79493;SDS011;68951;53.130;18.104;2023-07-24T03:21:16;8.90;;;4.40;;
79493;SDS011;68951;53.130;18.104;2023-07-24T03:23:43;9.50;;;4.10;;
79493;SDS011;68951;53.130;18.104;2023-07-24T03:26:09;10.20;;;4.20;;
79493;SDS011;68951;53.130;18.104;2023-07-24T03:28:35;9.40;;;4.50;;
79493;SDS011;68951;53.130;18.104;2023-07-24T03:31:01;7.80;;;3.70;;
79493;SDS011;68951;53.130;18.104;2023-07-24T03:33:27;8.60;;;3.70;;
79493;SDS011;68951;53.130;18.104;2023-07-24T03:35:54;8.30;;;3.80;;
79493;SDS011;68951;53.130;18.104;2023-07-24T03:38:20;8.40;;;3.40;;
79493;SDS011;68951;53.130;18.104;2023-07-24T03:40:46;6.30;;;2.90;;
79493;SDS011;68951;53.130;18.104;2023-07-24T03:43:13;7.00;;;3.00;;
79493;SDS011;68951;53.130;18.104;2023-07-24T03:45:39;7.50;;;3.10;;
79493;SDS011;68951;53.130;18.104;2023-07-24T03:48:05;6.90;;;3.10;;
79493;SDS011;68951;53.130;18.104;2023-07-24T03:50:31;9.10;;;3.30;;
79493;SDS011;68951;53.130;18.104;2023-07-24T03:52:57;6.80;;;3.50;;
79493;SDS011;68951;53.130;18.104;2023-07-24T03:55:23;9.00;;;3.20;;
79493;SDS011;68951;53.130;18.104;2023-07-24T03:57:49;6.30;;;2.80;;
79493;SDS011;68951;53.130;18.104;2023-07-24T04:00:16;6.90;;;2.80;;
79493;SDS011;68951;53.130;18.104;2023-07-24T04:02:44;6.10;;;2.60;;
79493;SDS011;68951;53.130;18.104;2023-07-24T04:05:10;6.70;;;2.20;;
79493;SDS011;68951;53.130;18.104;2023-07-24T04:07:36;8.10;;;2.40;;
79493;SDS011;68951;53.130;18.104;2023-07-24T04:10:03;5.60;;;2.10;;
79493;SDS011;68951;53.130;18.104;2023-07-24T04:12:30;6.10;;;2.10;;
79493;SDS011;68951;53.130;18.104;2023-07-24T04:14:56;7.60;;;2.60;;
79493;SDS011;68951;53.130;18.104;2023-07-24T04:17:22;7.10;;;2.40;;
79493;SDS011;68951;53.130;18.104;2023-07-24T04:19:48;6.60;;;2.50;;
79493;SDS011;68951;53.130;18.104;2023-07-24T04:22:14;6.50;;;2.40;;
79493;SDS011;68951;53.130;18.104;2023-07-24T04:24:41;7.20;;;2.20;;
79493;SDS011;68951;53.130;18.104;2023-07-24T04:27:07;6.80;;;2.20;;
79493;SDS011;68951;53.130;18.104;2023-07-24T04:29:33;4.90;;;2.10;;
79493;SDS011;68951;53.130;18.104;2023-07-24T04:31:59;5.60;;;2.20;;
79493;SDS011;68951;53.130;18.104;2023-07-24T04:34:25;6.20;;;2.00;;
79493;SDS011;68951;53.130;18.104;2023-07-24T04:36:51;5.20;;;1.70;;
79493;SDS011;68951;53.130;18.104;2023-07-24T04:39:17;6.60;;;2.10;;
79493;SDS011;68951;53.130;18.104;2023-07-24T04:41:44;6.10;;;2.30;;
79493;SDS011;68951;53.130;18.104;2023-07-24T04:44:10;6.10;;;2.30;;
79493;SDS011;68951;53.130;18.104;2023-07-24T04:46:36;5.10;;;1.80;;
79493;SDS011;68951;53.130;18.104;2023-07-24T04:49:02;6.10;;;1.80;;
79493;SDS011;68951;53.130;18.104;2023-07-24T04:51:28;5.40;;;2.00;;
79493;SDS011;68951;53.130;18.104;2023-07-24T04:53:54;5.60;;;1.60;;
79493;SDS011;68951;53.130;18.104;2023-07-24T04:56:20;5.00;;;2.00;;
79493;SDS011;68951;53.130;18.104;2023-07-24T04:58:46;5.30;;;1.90;;
79493;SDS011;68951;53.130;18.104;2023-07-24T05:01:13;5.50;;;1.70;;
79493;SDS011;68951;53.130;18.104;2023-07-24T05:03:39;5.00;;;2.00;;
79493;SDS011;68951;53.130;18.104;2023-07-24T05:06:05;6.90;;;2.00;;
79493;SDS011;68951;53.130;18.104;2023-07-24T05:08:31;7.20;;;1.90;;
79493;SDS011;68951;53.130;18.104;2023-07-24T05:10:58;5.00;;;1.60;;
79493;SDS011;68951;53.130;18.104;2023-07-24T05:13:27;6.90;;;2.00;;
79493;SDS011;68951;53.130;18.104;2023-07-24T05:15:54;5.50;;;2.00;;
79493;SDS011;68951;53.130;18.104;2023-07-24T05:18:20;8.40;;;2.30;;
79493;SDS011;68951;53.130;18.104;2023-07-24T05:20:47;5.40;;;1.80;;
79493;SDS011;68951;53.130;18.104;2023-07-24T05:23:14;5.10;;;1.70;;
79493;SDS011;68951;53.130;18.104;2023-07-24T05:25:41;4.40;;;1.60;;
79493;SDS011;68951;53.130;18.104;2023-07-24T05:28:07;6.40;;;2.30;;
79493;SDS011;68951;53.130;18.104;2023-07-24T05:30:33;6.00;;;2.50;;
79493;SDS011;68951;53.130;18.104;2023-07-24T05:33:00;9.00;;;2.50;;
79493;SDS011;68951;53.130;18.104;2023-07-24T05:35:26;8.90;;;2.20;;
79493;SDS011;68951;53.130;18.104;2023-07-24T05:37:52;11.70;;;2.50;;
79493;SDS011;68951;53.130;18.104;2023-07-24T05:40:18;7.40;;;1.80;;
79493;SDS011;68951;53.130;18.104;2023-07-24T05:42:45;7.10;;;2.40;;
79493;SDS011;68951;53.130;18.104;2023-07-24T05:45:12;6.10;;;1.70;;
79493;SDS011;68951;53.130;18.104;2023-07-24T05:47:40;5.10;;;2.10;;
79493;SDS011;68951;53.130;18.104;2023-07-24T05:50:06;5.70;;;1.90;;
79493;SDS011;68951;53.130;18.104;2023-07-24T05:52:33;6.20;;;2.10;;
79493;SDS011;68951;53.130;18.104;2023-07-24T05:54:59;5.60;;;1.90;;
79493;SDS011;68951;53.130;18.104;2023-07-24T05:57:25;4.20;;;1.50;;
79493;SDS011;68951;53.130;18.104;2023-07-24T05:59:51;4.80;;;2.00;;
79493;SDS011;68951;53.130;18.104;2023-07-24T06:02:18;5.30;;;1.90;;
79493;SDS011;68951;53.130;18.104;2023-07-24T06:04:44;5.70;;;1.80;;
79493;SDS011;68951;53.130;18.104;2023-07-24T06:07:10;6.00;;;2.20;;
79493;SDS011;68951;53.130;18.104;2023-07-24T06:09:37;6.00;;;2.00;;
79493;SDS011;68951;53.130;18.104;2023-07-24T06:12:03;6.00;;;2.10;;
79493;SDS011;68951;53.130;18.104;2023-07-24T06:14:29;4.30;;;1.60;;
79493;SDS011;68951;53.130;18.104;2023-07-24T06:16:56;4.80;;;1.90;;
79493;SDS011;68951;53.130;18.104;2023-07-24T06:19:22;7.60;;;2.00;;
79493;SDS011;68951;53.130;18.104;2023-07-24T06:21:48;7.00;;;2.50;;
79493;SDS011;68951;53.130;18.104;2023-07-24T06:24:14;5.60;;;2.30;;
79493;SDS011;68951;53.130;18.104;2023-07-24T06:26:40;7.40;;;2.70;;
79493;SDS011;68951;53.130;18.104;2023-07-24T06:29:06;6.10;;;2.50;;
79493;SDS011;68951;53.130;18.104;2023-07-24T06:31:32;8.30;;;2.60;;
79493;SDS011;68951;53.130;18.104;2023-07-24T06:33:58;6.70;;;3.00;;
79493;SDS011;68951;53.130;18.104;2023-07-24T06:36:25;6.90;;;2.10;;
79493;SDS011;68951;53.130;18.104;2023-07-24T06:38:52;6.80;;;2.10;;
79493;SDS011;68951;53.130;18.104;2023-07-24T06:41:18;5.60;;;2.20;;
79493;SDS011;68951;53.130;18.104;2023-07-24T06:43:46;7.00;;;2.60;;
79493;SDS011;68951;53.130;18.104;2023-07-24T06:46:13;6.30;;;2.70;;
79493;SDS011;68951;53.130;18.104;2023-07-24T06:48:39;6.40;;;2.60;;
79493;SDS011;68951;53.130;18.104;2023-07-24T06:51:05;5.40;;;2.60;;
79493;SDS011;68951;53.130;18.104;2023-07-24T06:53:31;5.30;;;2.40;;
79493;SDS011;68951;53.130;18.104;2023-07-24T06:55:57;6.60;;;2.30;;
79493;SDS011;68951;53.130;18.104;2023-07-24T06:58:23;7.10;;;2.80;;
79493;SDS011;68951;53.130;18.104;2023-07-24T07:00:49;6.80;;;2.10;;
79493;SDS011;68951;53.130;18.104;2023-07-24T07:03:16;6.50;;;2.30;;
79493;SDS011;68951;53.130;18.104;2023-07-24T07:05:42;5.90;;;2.20;;
79493;SDS011;68951;53.130;18.104;2023-07-24T07:08:08;6.70;;;2.50;;
79493;SDS011;68951;53.130;18.104;2023-07-24T07:10:34;4.30;;;1.80;;
79493;SDS011;68951;53.130;18.104;2023-07-24T07:13:00;8.00;;;2.50;;
79493;SDS011;68951;53.130;18.104;2023-07-24T07:15:27;5.50;;;2.20;;
79493;SDS011;68951;53.130;18.104;2023-07-24T07:17:53;4.30;;;1.80;;
79493;SDS011;68951;53.130;18.104;2023-07-24T07:20:19;6.00;;;2.10;;
79493;SDS011;68951;53.130;18.104;2023-07-24T07:22:45;5.50;;;2.20;;
79493;SDS011;68951;53.130;18.104;2023-07-24T07:25:12;4.70;;;2.00;;
79493;SDS011;68951;53.130;18.104;2023-07-24T07:27:38;4.60;;;1.90;;
79493;SDS011;68951;53.130;18.104;2023-07-24T07:30:05;6.20;;;2.60;;
79493;SDS011;68951;53.130;18.104;2023-07-24T07:32:32;5.60;;;2.50;;
79493;SDS011;68951;53.130;18.104;2023-07-24T07:34:59;6.80;;;2.60;;
79493;SDS011;68951;53.130;18.104;2023-07-24T07:37:25;6.00;;;2.60;;
79493;SDS011;68951;53.130;18.104;2023-07-24T07:39:51;8.30;;;2.90;;
79493;SDS011;68951;53.130;18.104;2023-07-24T07:42:17;5.60;;;2.60;;
79493;SDS011;68951;53.130;18.104;2023-07-24T07:44:43;5.40;;;2.80;;
79493;SDS011;68951;53.130;18.104;2023-07-24T07:47:09;5.40;;;2.60;;
79493;SDS011;68951;53.130;18.104;2023-07-24T07:49:35;5.50;;;1.80;;
79493;SDS011;68951;53.130;18.104;2023-07-24T07:52:02;6.70;;;2.00;;
79493;SDS011;68951;53.130;18.104;2023-07-24T07:54:28;6.80;;;2.20;;
79493;SDS011;68951;53.130;18.104;2023-07-24T07:56:54;10.20;;;2.90;;
79493;SDS011;68951;53.130;18.104;2023-07-24T07:59:20;5.90;;;2.40;;
79493;SDS011;68951;53.130;18.104;2023-07-24T08:01:47;6.00;;;2.60;;
79493;SDS011;68951;53.130;18.104;2023-07-24T08:04:13;5.70;;;2.60;;
79493;SDS011;68951;53.130;18.104;2023-07-24T08:06:39;7.30;;;2.20;;
79493;SDS011;68951;53.130;18.104;2023-07-24T08:09:05;4.80;;;2.30;;
79493;SDS011;68951;53.130;18.104;2023-07-24T08:11:32;7.30;;;2.80;;
79493;SDS011;68951;53.130;18.104;2023-07-24T08:13:58;5.30;;;1.90;;
79493;SDS011;68951;53.130;18.104;2023-07-24T08:16:24;5.20;;;1.80;;
79493;SDS011;68951;53.130;18.104;2023-07-24T08:18:50;6.50;;;1.80;;
79493;SDS011;68951;53.130;18.104;2023-07-24T08:21:16;5.10;;;2.00;;
79493;SDS011;68951;53.130;18.104;2023-07-24T08:23:42;5.50;;;1.90;;
79493;SDS011;68951;53.130;18.104;2023-07-24T08:26:09;6.00;;;1.70;;
79493;SDS011;68951;53.130;18.104;2023-07-24T08:28:35;5.00;;;2.10;;
79493;SDS011;68951;53.130;18.104;2023-07-24T08:31:01;5.10;;;1.90;;
79493;SDS011;68951;53.130;18.104;2023-07-24T08:33:28;5.50;;;2.00;;
79493;SDS011;68951;53.130;18.104;2023-07-24T08:35:59;5.70;;;2.10;;
79493;SDS011;68951;53.130;18.104;2023-07-24T08:38:26;6.00;;;2.10;;
79493;SDS011;68951;53.130;18.104;2023-07-24T08:41:07;4.20;;;1.70;;
79493;SDS011;68951;53.130;18.104;2023-07-24T08:43:36;4.20;;;1.50;;
79493;SDS011;68951;53.130;18.104;2023-07-24T08:46:04;4.90;;;1.70;;
79493;SDS011;68951;53.130;18.104;2023-07-24T08:48:36;5.40;;;1.90;;
79493;SDS011;68951;53.130;18.104;2023-07-24T08:51:04;4.30;;;1.30;;
79493;SDS011;68951;53.130;18.104;2023-07-24T08:53:36;5.10;;;1.80;;
79493;SDS011;68951;53.130;18.104;2023-07-24T08:56:04;4.20;;;1.70;;
79493;SDS011;68951;53.130;18.104;2023-07-24T08:58:32;5.60;;;1.90;;
79493;SDS011;68951;53.130;18.104;2023-07-24T09:00:59;6.00;;;2.40;;
79493;SDS011;68951;53.130;18.104;2023-07-24T09:03:26;4.60;;;1.80;;
79493;SDS011;68951;53.130;18.104;2023-07-24T09:05:54;4.40;;;1.60;;
79493;SDS011;68951;53.130;18.104;2023-07-24T09:08:42;3.70;;;1.50;;
79493;SDS011;68951;53.130;18.104;2023-07-24T09:11:10;4.20;;;1.50;;
79493;SDS011;68951;53.130;18.104;2023-07-24T09:13:41;4.60;;;2.00;;
79493;SDS011;68951;53.130;18.104;2023-07-24T09:16:09;7.30;;;2.20;;
79493;SDS011;68951;53.130;18.104;2023-07-24T09:18:46;5.70;;;2.00;;
79493;SDS011;68951;53.130;18.104;2023-07-24T09:21:12;5.60;;;1.70;;
79493;SDS011;68951;53.130;18.104;2023-07-24T09:23:38;4.40;;;1.70;;
79493;SDS011;68951;53.130;18.104;2023-07-24T09:26:07;5.30;;;2.60;;
79493;SDS011;68951;53.130;18.104;2023-07-24T09:28:34;5.40;;;2.00;;
79493;SDS011;68951;53.130;18.104;2023-07-24T09:31:01;3.80;;;1.60;;
79493;SDS011;68951;53.130;18.104;2023-07-24T09:36:03;5.20;;;1.90;;
79493;SDS011;68951;53.130;18.104;2023-07-24T09:38:30;5.20;;;1.90;;
79493;SDS011;68951;53.130;18.104;2023-07-24T09:40:57;5.60;;;2.00;;
79493;SDS011;68951;53.130;18.104;2023-07-24T09:43:25;4.00;;;1.70;;
79493;SDS011;68951;53.130;18.104;2023-07-24T09:45:54;4.70;;;1.40;;
79493;SDS011;68951;53.130;18.104;2023-07-24T09:48:24;4.10;;;1.40;;
79493;SDS011;68951;53.130;18.104;2023-07-24T09:50:58;4.80;;;2.00;;
79493;SDS011;68951;53.130;18.104;2023-07-24T09:53:43;4.30;;;1.50;;
79493;SDS011;68951;53.130;18.104;2023-07-24T09:56:12;4.70;;;1.50;;
79493;SDS011;68951;53.130;18.104;2023-07-24T09:58:40;4.30;;;1.70;;
79493;SDS011;68951;53.130;18.104;2023-07-24T10:01:08;6.20;;;1.80;;
79493;SDS011;68951;53.130;18.104;2023-07-24T10:03:39;4.70;;;2.40;;
79493;SDS011;68951;53.130;18.104;2023-07-24T10:06:16;5.80;;;2.40;;
79493;SDS011;68951;53.130;18.104;2023-07-24T10:08:43;4.70;;;1.90;;
79493;SDS011;68951;53.130;18.104;2023-07-24T10:11:14;4.10;;;1.40;;
79493;SDS011;68951;53.130;18.104;2023-07-24T10:13:41;4.10;;;1.90;;
79493;SDS011;68951;53.130;18.104;2023-07-24T10:16:07;5.80;;;2.20;;
79493;SDS011;68951;53.130;18.104;2023-07-24T10:18:35;5.50;;;2.50;;
79493;SDS011;68951;53.130;18.104;2023-07-24T10:21:09;4.40;;;1.80;;
79493;SDS011;68951;53.130;18.104;2023-07-24T10:23:43;4.80;;;2.30;;
79493;SDS011;68951;53.130;18.104;2023-07-24T10:26:12;4.40;;;2.40;;
79493;SDS011;68951;53.130;18.104;2023-07-24T10:28:40;6.10;;;2.60;;
79493;SDS011;68951;53.130;18.104;2023-07-24T10:31:19;4.90;;;2.30;;
79493;SDS011;68951;53.130;18.104;2023-07-24T10:33:46;4.60;;;2.50;;
79493;SDS011;68951;53.130;18.104;2023-07-24T10:36:17;4.40;;;1.90;;
79493;SDS011;68951;53.130;18.104;2023-07-24T10:38:46;6.10;;;2.70;;
79493;SDS011;68951;53.130;18.104;2023-07-24T10:41:17;6.00;;;2.80;;
79493;SDS011;68951;53.130;18.104;2023-07-24T10:43:45;4.40;;;2.20;;
79493;SDS011;68951;53.130;18.104;2023-07-24T10:46:13;6.20;;;1.70;;
79493;SDS011;68951;53.130;18.104;2023-07-24T10:48:45;4.90;;;2.70;;
79493;SDS011;68951;53.130;18.104;2023-07-24T10:51:13;4.60;;;2.00;;
79493;SDS011;68951;53.130;18.104;2023-07-24T10:53:49;5.60;;;2.10;;
79493;SDS011;68951;53.130;18.104;2023-07-24T10:56:16;11.00;;;2.40;;
79493;SDS011;68951;53.130;18.104;2023-07-24T10:58:43;5.20;;;2.60;;
79493;SDS011;68951;53.130;18.104;2023-07-24T11:01:09;3.90;;;1.90;;
79493;SDS011;68951;53.130;18.104;2023-07-24T11:03:41;4.70;;;2.40;;
79493;SDS011;68951;53.130;18.104;2023-07-24T11:06:18;5.00;;;2.40;;
79493;SDS011;68951;53.130;18.104;2023-07-24T11:08:52;4.50;;;2.20;;
79493;SDS011;68951;53.130;18.104;2023-07-24T11:11:31;7.00;;;2.70;;
79493;SDS011;68951;53.130;18.104;2023-07-24T11:13:59;4.50;;;2.50;;
79493;SDS011;68951;53.130;18.104;2023-07-24T11:16:27;6.60;;;2.30;;
79493;SDS011;68951;53.130;18.104;2023-07-24T11:18:55;5.60;;;2.60;;
79493;SDS011;68951;53.130;18.104;2023-07-24T11:21:23;5.10;;;2.30;;
79493;SDS011;68951;53.130;18.104;2023-07-24T11:23:52;3.80;;;1.90;;
79493;SDS011;68951;53.130;18.104;2023-07-24T11:26:20;5.80;;;2.60;;
79493;SDS011;68951;53.130;18.104;2023-07-24T11:28:49;4.60;;;2.00;;
79493;SDS011;68951;53.130;18.104;2023-07-24T11:31:15;4.20;;;1.90;;
79493;SDS011;68951;53.130;18.104;2023-07-24T11:33:46;6.40;;;2.40;;
79493;SDS011;68951;53.130;18.104;2023-07-24T11:36:15;4.50;;;2.10;;
79493;SDS011;68951;53.130;18.104;2023-07-24T11:38:41;5.90;;;2.80;;
79493;SDS011;68951;53.130;18.104;2023-07-24T11:41:08;5.80;;;2.30;;
79493;SDS011;68951;53.130;18.104;2023-07-24T11:43:34;6.30;;;2.50;;
79493;SDS011;68951;53.130;18.104;2023-07-24T11:46:00;4.00;;;1.50;;
79493;SDS011;68951;53.130;18.104;2023-07-24T11:48:27;4.10;;;2.00;;
79493;SDS011;68951;53.130;18.104;2023-07-24T11:50:55;3.90;;;1.80;;
79493;SDS011;68951;53.130;18.104;2023-07-24T11:53:30;6.40;;;2.30;;
79493;SDS011;68951;53.130;18.104;2023-07-24T11:55:58;5.80;;;2.10;;
79493;SDS011;68951;53.130;18.104;2023-07-24T11:58:26;5.00;;;2.10;;
79493;SDS011;68951;53.130;18.104;2023-07-24T12:00:54;3.80;;;1.80;;
79493;SDS011;68951;53.130;18.104;2023-07-24T12:03:21;5.00;;;2.20;;
79493;SDS011;68951;53.130;18.104;2023-07-24T12:05:50;4.70;;;2.10;;
79493;SDS011;68951;53.130;18.104;2023-07-24T12:08:17;6.20;;;2.10;;
79493;SDS011;68951;53.130;18.104;2023-07-24T12:10:45;4.00;;;2.00;;
79493;SDS011;68951;53.130;18.104;2023-07-24T12:13:12;5.00;;;2.50;;
79493;SDS011;68951;53.130;18.104;2023-07-24T12:15:38;4.60;;;2.20;;
79493;SDS011;68951;53.130;18.104;2023-07-24T12:18:05;3.80;;;1.90;;
79493;SDS011;68951;53.130;18.104;2023-07-24T12:20:32;4.30;;;1.80;;
79493;SDS011;68951;53.130;18.104;2023-07-24T12:22:58;5.60;;;2.20;;
79493;SDS011;68951;53.130;18.104;2023-07-24T12:25:25;4.80;;;1.80;;
79493;SDS011;68951;53.130;18.104;2023-07-24T12:27:51;3.80;;;1.90;;
79493;SDS011;68951;53.130;18.104;2023-07-24T12:30:18;5.60;;;2.10;;
79493;SDS011;68951;53.130;18.104;2023-07-24T12:32:45;4.60;;;2.20;;
79493;SDS011;68951;53.130;18.104;2023-07-24T12:35:11;3.90;;;1.90;;
79493;SDS011;68951;53.130;18.104;2023-07-24T12:37:38;4.00;;;1.70;;
79493;SDS011;68951;53.130;18.104;2023-07-24T12:40:08;3.80;;;1.80;;
79493;SDS011;68951;53.130;18.104;2023-07-24T12:42:35;4.50;;;2.00;;
79493;SDS011;68951;53.130;18.104;2023-07-24T12:45:01;3.30;;;1.40;;
79493;SDS011;68951;53.130;18.104;2023-07-24T12:47:32;4.10;;;1.90;;
79493;SDS011;68951;53.130;18.104;2023-07-24T12:49:58;4.30;;;1.60;;
79493;SDS011;68951;53.130;18.104;2023-07-24T12:52:25;5.40;;;2.00;;
79493;SDS011;68951;53.130;18.104;2023-07-24T12:54:53;4.10;;;1.80;;
79493;SDS011;68951;53.130;18.104;2023-07-24T12:57:19;5.00;;;1.90;;
79493;SDS011;68951;53.130;18.104;2023-07-24T12:59:45;4.70;;;2.30;;
79493;SDS011;68951;53.130;18.104;2023-07-24T13:02:12;4.60;;;2.10;;
79493;SDS011;68951;53.130;18.104;2023-07-24T13:04:38;4.20;;;1.60;;
79493;SDS011;68951;53.130;18.104;2023-07-24T13:07:04;4.90;;;2.10;;
79493;SDS011;68951;53.130;18.104;2023-07-24T13:09:31;5.60;;;2.40;;
79493;SDS011;68951;53.130;18.104;2023-07-24T13:11:57;4.10;;;1.80;;
79493;SDS011;68951;53.130;18.104;2023-07-24T13:14:23;4.10;;;1.60;;
79493;SDS011;68951;53.130;18.104;2023-07-24T13:16:50;4.60;;;2.20;;
79493;SDS011;68951;53.130;18.104;2023-07-24T13:19:16;5.00;;;2.10;;
79493;SDS011;68951;53.130;18.104;2023-07-24T13:21:43;4.80;;;2.00;;
79493;SDS011;68951;53.130;18.104;2023-07-24T13:24:09;4.80;;;2.00;;
79493;SDS011;68951;53.130;18.104;2023-07-24T13:26:36;4.80;;;2.60;;
79493;SDS011;68951;53.130;18.104;2023-07-24T13:29:03;4.00;;;1.70;;
79493;SDS011;68951;53.130;18.104;2023-07-24T13:31:30;5.00;;;2.30;;
79493;SDS011;68951;53.130;18.104;2023-07-24T13:33:57;5.00;;;2.50;;
79493;SDS011;68951;53.130;18.104;2023-07-24T13:36:23;5.00;;;2.30;;
79493;SDS011;68951;53.130;18.104;2023-07-24T13:38:49;3.90;;;1.80;;
79493;SDS011;68951;53.130;18.104;2023-07-24T13:41:16;3.70;;;2.10;;
79493;SDS011;68951;53.130;18.104;2023-07-24T13:43:42;5.30;;;2.40;;
79493;SDS011;68951;53.130;18.104;2023-07-24T13:46:08;5.20;;;2.20;;
79493;SDS011;68951;53.130;18.104;2023-07-24T13:48:35;4.70;;;2.10;;
79493;SDS011;68951;53.130;18.104;2023-07-24T13:51:01;3.90;;;2.00;;
79493;SDS011;68951;53.130;18.104;2023-07-24T13:53:27;4.20;;;2.60;;
79493;SDS011;68951;53.130;18.104;2023-07-24T13:55:54;5.80;;;2.70;;
79493;SDS011;68951;53.130;18.104;2023-07-24T13:58:20;5.70;;;2.90;;
79493;SDS011;68951;53.130;18.104;2023-07-24T14:00:46;5.40;;;2.40;;
79493;SDS011;68951;53.130;18.104;2023-07-24T14:03:13;4.60;;;2.80;;
79493;SDS011;68951;53.130;18.104;2023-07-24T14:05:40;4.10;;;2.40;;
79493;SDS011;68951;53.130;18.104;2023-07-24T14:08:06;5.10;;;2.20;;
79493;SDS011;68951;53.130;18.104;2023-07-24T14:10:33;7.10;;;2.90;;
79493;SDS011;68951;53.130;18.104;2023-07-24T14:12:59;5.50;;;2.80;;
79493;SDS011;68951;53.130;18.104;2023-07-24T14:15:25;5.50;;;2.80;;
79493;SDS011;68951;53.130;18.104;2023-07-24T14:17:52;6.30;;;2.40;;
79493;SDS011;68951;53.130;18.104;2023-07-24T14:20:18;5.10;;;2.60;;
79493;SDS011;68951;53.130;18.104;2023-07-24T14:22:44;6.80;;;2.70;;
79493;SDS011;68951;53.130;18.104;2023-07-24T14:25:11;6.50;;;2.80;;
79493;SDS011;68951;53.130;18.104;2023-07-24T14:27:37;6.70;;;2.60;;
79493;SDS011;68951;53.130;18.104;2023-07-24T14:30:04;6.00;;;3.10;;
79493;SDS011;68951;53.130;18.104;2023-07-24T14:32:30;4.70;;;2.30;;
79493;SDS011;68951;53.130;18.104;2023-07-24T14:34:58;4.20;;;2.60;;
79493;SDS011;68951;53.130;18.104;2023-07-24T14:37:24;5.40;;;2.40;;